Time;durP1;ratioP1;P1;durP2;ratioP2;P2;SDS_P1;SDS_P2;PMS_P1;PMS_P2;Temp;Humidity;BMP_temperature;BMP_pressure;BME280_temperature;BME280_humidity;BME280_pressure;Samples;Min_cycle;Max_cycle;Signal;HPM_P1;HPM_P2
2020/12/24 00:02:12;;;;;;;1.40;1.30;;;12.30;99.90;;;;;;4972770;28;20449;-26
2020/12/24 00:04:39;;;;;;;1.70;1.60;;;12.30;99.90;;;;;;4972875;28;20464;-26
2020/12/24 00:07:05;;;;;;;1.80;1.70;;;12.20;99.90;;;;;;4972258;28;20456;-26
2020/12/24 00:09:32;;;;;;;1.30;1.30;;;12.20;99.90;;;;;;4972912;28;20861;-25
2020/12/24 00:11:58;;;;;;;1.10;1.10;;;12.10;99.90;;;;;;4972617;28;20540;-25
2020/12/24 00:14:25;;;;;;;1.10;1.10;;;12.10;99.90;;;;;;4972307;28;20511;-26
2020/12/24 00:16:53;;;;;;;1.60;1.40;;;12.10;99.90;;;;;;4972428;28;20496;-25
2020/12/24 00:19:19;;;;;;;1.20;1.20;;;12.10;99.90;;;;;;4972852;28;20476;-26
2020/12/24 00:21:46;;;;;;;1.10;1.10;;;12.10;99.90;;;;;;4972734;28;20645;-25
2020/12/24 00:24:14;;;;;;;1.80;1.70;;;12.10;99.90;;;;;;4972001;28;20483;-25
2020/12/24 00:26:41;;;;;;;1.40;1.07;;;12.00;99.90;;;;;;4973103;28;20442;-25
2020/12/24 00:29:09;;;;;;;1.10;1.10;;;12.00;99.90;;;;;;4972925;28;20464;-25
2020/12/24 00:31:36;;;;;;;1.47;1.30;;;12.00;99.90;;;;;;4972627;28;20706;-26
2020/12/24 00:34:05;;;;;;;1.27;1.27;;;11.90;99.90;;;;;;4971949;28;20562;-26
2020/12/24 00:36:33;;;;;;;1.17;1.17;;;11.80;99.90;;;;;;4972039;28;20461;-26
2020/12/24 00:39:00;;;;;;;1.03;1.00;;;11.90;99.90;;;;;;4972217;28;20504;-26
2020/12/24 00:41:27;;;;;;;1.30;1.30;;;11.90;99.90;;;;;;4971332;28;20449;-26
2020/12/24 00:43:53;;;;;;;1.13;1.13;;;11.90;99.90;;;;;;4972855;28;20469;-25
2020/12/24 00:46:20;;;;;;;1.20;1.20;;;11.90;99.90;;;;;;4954528;28;20441;-26
2020/12/24 00:48:47;;;;;;;1.43;1.33;;;11.80;99.90;;;;;;4971077;28;20484;-26
2020/12/24 00:51:15;;;;;;;1.00;1.00;;;11.80;99.90;;;;;;4971212;28;20449;-25
2020/12/24 00:53:41;;;;;;;1.20;1.20;;;11.80;99.90;;;;;;4970834;28;20553;-25
2020/12/24 00:56:10;;;;;;;1.20;1.20;;;11.70;99.90;;;;;;4969978;28;20489;-24
2020/12/24 00:58:40;;;;;;;2.00;1.10;;;11.80;99.90;;;;;;4953488;28;20879;-25
2020/12/24 01:01:07;;;;;;;1.80;1.10;;;11.70;99.90;;;;;;4971387;28;20587;-25
2020/12/24 01:03:33;;;;;;;1.17;1.17;;;11.70;99.90;;;;;;4970509;28;20449;-27
2020/12/24 01:06:00;;;;;;;1.03;1.03;;;11.60;99.90;;;;;;4972475;28;20441;-26
2020/12/24 01:08:27;;;;;;;1.60;1.30;;;11.50;99.90;;;;;;4970932;28;20505;-26
2020/12/24 01:10:54;;;;;;;1.27;1.20;;;11.50;99.90;;;;;;4972158;28;20575;-26
2020/12/24 01:13:20;;;;;;;1.40;1.33;;;11.60;99.90;;;;;;4954246;28;20752;-26
2020/12/24 01:15:47;;;;;;;1.83;1.40;;;11.60;99.90;;;;;;4970551;28;20488;-27
2020/12/24 01:18:14;;;;;;;1.40;1.40;;;11.60;99.90;;;;;;4971156;28;20441;-26
2020/12/24 01:20:40;;;;;;;1.40;1.40;;;11.60;99.90;;;;;;4971981;28;20540;-26
2020/12/24 01:23:07;;;;;;;2.53;1.43;;;11.60;99.90;;;;;;4971450;28;20516;-26
2020/12/24 01:25:34;;;;;;;1.53;1.30;;;11.60;99.90;;;;;;4970928;28;20437;-27
2020/12/24 01:28:01;;;;;;;1.93;1.40;;;11.60;99.90;;;;;;4971979;28;20793;-26
2020/12/24 01:30:27;;;;;;;3.73;1.30;;;11.40;99.90;;;;;;4970490;28;20460;-26
2020/12/24 01:32:54;;;;;;;3.03;1.83;;;11.30;99.90;;;;;;4971986;28;20433;-26
2020/12/24 01:35:21;;;;;;;5.03;1.30;;;11.30;99.90;;;;;;4969927;28;20453;-26
2020/12/24 01:37:48;;;;;;;2.33;1.30;;;11.20;99.90;;;;;;4971054;28;20636;-26
2020/12/24 01:40:15;;;;;;;1.17;1.17;;;11.10;99.90;;;;;;4972467;28;20441;-26
2020/12/24 01:42:43;;;;;;;3.43;1.20;;;11.10;99.90;;;;;;4971816;28;20958;-26
2020/12/24 01:45:10;;;;;;;1.50;1.40;;;11.10;99.90;;;;;;4972275;28;20442;-26
2020/12/24 01:47:36;;;;;;;1.53;1.47;;;11.00;99.90;;;;;;4970875;28;20437;-26
2020/12/24 01:50:04;;;;;;;1.50;1.40;;;11.00;99.90;;;;;;4971676;28;20456;-26
2020/12/24 01:52:33;;;;;;;1.20;1.10;;;10.90;99.90;;;;;;4972726;28;20532;-26
2020/12/24 01:55:01;;;;;;;1.30;1.20;;;10.90;99.90;;;;;;4972169;28;20779;-26
2020/12/24 01:57:28;;;;;;;1.43;1.13;;;10.90;99.90;;;;;;4971707;28;20517;-26
2020/12/24 01:59:56;;;;;;;1.63;1.20;;;10.80;99.90;;;;;;4970544;28;20477;-26
2020/12/24 02:02:23;;;;;;;1.73;1.03;;;10.80;99.90;;;;;;4971326;28;20446;-26
2020/12/24 02:04:50;;;;;;;1.43;1.20;;;10.90;99.90;;;;;;4972112;28;21081;-26
2020/12/24 02:07:18;;;;;;;2.10;1.30;;;10.90;99.90;;;;;;4971326;28;20441;-26
2020/12/24 02:09:46;;;;;;;2.83;1.30;;;10.80;99.90;;;;;;4971740;28;20456;-26
2020/12/24 02:12:13;;;;;;;1.17;1.17;;;10.80;99.90;;;;;;4970062;28;20480;-26
2020/12/24 02:14:41;;;;;;;1.57;0.97;;;10.80;99.90;;;;;;4971631;28;20449;-26
2020/12/24 02:17:09;;;;;;;1.40;1.30;;;10.80;99.90;;;;;;4971796;28;20883;-26
2020/12/24 02:19:36;;;;;;;1.27;1.10;;;10.80;99.90;;;;;;4970957;28;20442;-26
2020/12/24 02:22:04;;;;;;;1.90;1.80;;;10.80;99.90;;;;;;4970503;28;20863;-26
2020/12/24 02:24:31;;;;;;;4.93;2.60;;;10.80;99.90;;;;;;4971592;28;20460;-26
2020/12/24 02:26:57;;;;;;;1.43;1.33;;;10.70;99.90;;;;;;4971800;28;20433;-26
2020/12/24 02:29:24;;;;;;;1.10;1.10;;;10.70;99.90;;;;;;4970466;28;20809;-26
2020/12/24 02:31:51;;;;;;;1.10;1.10;;;10.50;99.90;;;;;;4969939;28;20504;-26
2020/12/24 02:34:18;;;;;;;1.20;1.20;;;10.50;99.90;;;;;;4970394;28;20441;-26
2020/12/24 02:36:44;;;;;;;1.20;1.20;;;10.50;99.90;;;;;;4971232;28;20639;-26
2020/12/24 02:39:12;;;;;;;1.37;1.20;;;10.50;99.90;;;;;;4970880;28;20433;-26
2020/12/24 02:41:38;;;;;;;4.73;1.50;;;10.40;99.90;;;;;;4954327;28;20731;-26
2020/12/24 02:44:05;;;;;;;1.30;1.30;;;10.40;99.90;;;;;;4971667;28;20465;-26
2020/12/24 02:46:32;;;;;;;1.20;1.10;;;10.40;99.90;;;;;;4971298;28;20492;-26
2020/12/24 02:48:58;;;;;;;1.57;1.40;;;10.40;99.90;;;;;;4971031;28;20449;-27
2020/12/24 02:51:25;;;;;;;1.63;1.27;;;10.40;99.90;;;;;;4970403;28;20460;-26
2020/12/24 02:53:52;;;;;;;3.53;1.13;;;10.50;99.90;;;;;;4971144;28;20677;-26
2020/12/24 02:56:19;;;;;;;3.53;1.30;;;10.50;99.90;;;;;;4970281;28;20561;-26
2020/12/24 02:58:46;;;;;;;1.23;1.23;;;10.50;99.90;;;;;;4953554;28;20461;-26
2020/12/24 03:01:12;;;;;;;1.57;1.30;;;10.50;99.90;;;;;;4971714;28;20872;-26
2020/12/24 03:03:39;;;;;;;1.17;1.17;;;10.60;99.90;;;;;;4971240;28;20789;-26
2020/12/24 03:06:05;;;;;;;1.07;1.07;;;10.60;99.90;;;;;;4971569;28;20741;-26
2020/12/24 03:08:32;;;;;;;1.20;1.20;;;10.60;99.90;;;;;;4972622;28;20441;-26
2020/12/24 03:10:59;;;;;;;1.93;1.40;;;10.60;99.90;;;;;;4973326;28;20476;-26
2020/12/24 03:13:26;;;;;;;3.00;1.30;;;10.60;99.90;;;;;;4975066;28;20914;-26
2020/12/24 03:15:53;;;;;;;1.30;1.30;;;10.60;99.90;;;;;;4974449;28;20769;-26
2020/12/24 03:18:19;;;;;;;1.37;1.27;;;10.60;99.90;;;;;;4974635;28;20737;-26
2020/12/24 03:20:46;;;;;;;1.00;1.00;;;10.60;99.90;;;;;;4957671;28;20454;-26
2020/12/24 03:23:12;;;;;;;1.57;1.40;;;10.60;99.90;;;;;;4975181;28;20598;-26
2020/12/24 03:25:39;;;;;;;1.20;1.20;;;10.60;99.90;;;;;;4974702;28;20504;-26
2020/12/24 03:28:05;;;;;;;1.00;1.00;;;10.50;99.90;;;;;;4975268;28;20906;-27
2020/12/24 03:30:33;;;;;;;1.57;1.47;;;10.50;99.90;;;;;;4975295;28;20480;-26
2020/12/24 03:32:59;;;;;;;1.73;1.30;;;10.50;99.90;;;;;;4974738;28;20717;-27
2020/12/24 03:35:26;;;;;;;1.20;1.10;;;10.40;99.90;;;;;;4974200;28;20456;-26
2020/12/24 03:37:52;;;;;;;1.20;1.10;;;10.50;99.90;;;;;;4974649;28;20523;-26
2020/12/24 03:40:19;;;;;;;5.33;1.33;;;10.50;99.90;;;;;;4973391;28;20794;-26
2020/12/24 03:42:45;;;;;;;1.50;1.40;;;10.50;99.90;;;;;;4973354;28;20887;-27
2020/12/24 03:45:12;;;;;;;2.50;2.40;;;10.50;99.90;;;;;;4974515;28;20437;-26
2020/12/24 03:47:41;;;;;;;1.20;1.20;;;10.50;99.90;;;;;;4973146;28;20777;-26
2020/12/24 03:50:08;;;;;;;1.20;1.20;;;10.50;99.90;;;;;;4973608;28;20456;-26
2020/12/24 03:52:34;;;;;;;1.20;1.20;;;10.40;99.90;;;;;;4956701;28;20471;-26
2020/12/24 03:55:01;;;;;;;1.57;1.47;;;10.30;99.90;;;;;;4973958;28;20827;-26
2020/12/24 03:57:27;;;;;;;2.13;2.03;;;10.40;99.90;;;;;;4974069;28;20754;-26
2020/12/24 03:59:54;;;;;;;1.30;1.20;;;10.40;99.90;;;;;;4972661;28;20492;-26
2020/12/24 04:02:20;;;;;;;1.50;1.40;;;10.40;99.90;;;;;;4973191;28;20778;-26
2020/12/24 04:04:48;;;;;;;1.90;1.20;;;10.30;99.90;;;;;;4972500;28;20441;-26
2020/12/24 04:07:15;;;;;;;2.50;1.60;;;10.30;99.90;;;;;;4972500;28;20442;-26
2020/12/24 04:09:41;;;;;;;2.50;1.20;;;10.20;99.90;;;;;;4972986;28;20479;-26
2020/12/24 04:12:08;;;;;;;1.40;1.33;;;10.20;99.90;;;;;;4973587;28;20442;-26
2020/12/24 04:14:34;;;;;;;1.63;1.40;;;10.10;99.90;;;;;;4972346;28;20532;-26
2020/12/24 04:17:01;;;;;;;3.10;1.77;;;10.00;99.90;;;;;;4972903;28;20890;-26
2020/12/24 04:19:27;;;;;;;2.43;1.30;;;10.00;99.90;;;;;;4971678;28;20540;-26
2020/12/24 04:21:55;;;;;;;1.63;1.53;;;10.10;99.90;;;;;;4971209;28;20449;-26
2020/12/24 04:24:22;;;;;;;1.10;1.10;;;10.10;99.90;;;;;;4972645;28;20441;-26
2020/12/24 04:26:48;;;;;;;1.23;1.23;;;10.10;99.90;;;;;;4971279;28;20474;-26
2020/12/24 04:29:15;;;;;;;1.60;1.50;;;10.10;99.90;;;;;;4972937;28;20734;-27
2020/12/24 04:31:42;;;;;;;1.40;1.30;;;10.10;99.90;;;;;;4971300;28;20459;-26
2020/12/24 04:34:09;;;;;;;2.70;1.67;;;10.10;99.90;;;;;;4972055;28;20836;-26
2020/12/24 04:36:36;;;;;;;1.43;1.43;;;10.10;99.90;;;;;;4972442;28;20618;-27
2020/12/24 04:39:04;;;;;;;1.20;1.20;;;10.10;99.90;;;;;;4972266;28;20445;-26
2020/12/24 04:41:31;;;;;;;1.40;1.30;;;10.10;99.90;;;;;;4972177;28;20894;-26
2020/12/24 04:44:01;;;;;;;1.53;1.43;;;10.10;99.90;;;;;;4972501;28;20849;-26
2020/12/24 04:46:29;;;;;;;1.90;1.63;;;10.10;99.90;;;;;;4972502;28;20444;-27
2020/12/24 04:48:57;;;;;;;3.90;1.40;;;10.00;99.90;;;;;;4971571;28;20450;-26
2020/12/24 04:51:25;;;;;;;6.23;1.60;;;10.00;99.90;;;;;;4971196;28;20465;-26
2020/12/24 04:53:52;;;;;;;1.20;1.20;;;10.00;99.90;;;;;;4972085;28;20466;-26
2020/12/24 04:56:20;;;;;;;1.20;1.20;;;9.90;99.90;;;;;;4971310;28;20465;-26
2020/12/24 04:58:46;;;;;;;1.37;1.27;;;9.90;99.90;;;;;;4971028;28;20515;-26
2020/12/24 05:01:17;;;;;;;1.90;1.80;;;9.90;99.90;;;;;;4971049;28;20485;-26
2020/12/24 05:03:44;;;;;;;1.50;1.50;;;9.90;99.90;;;;;;4971445;28;20445;-26
2020/12/24 05:06:15;;;;;;;1.60;1.50;;;9.90;99.90;;;;;;4971275;28;20496;-26
2020/12/24 05:08:49;;;;;;;1.90;1.43;;;10.00;99.90;;;;;;4970526;28;20504;-26
2020/12/24 05:11:16;;;;;;;1.60;1.50;;;10.00;99.90;;;;;;4971546;28;20444;-26
2020/12/24 05:13:43;;;;;;;3.17;1.37;;;9.90;99.90;;;;;;4971188;28;20452;-26
2020/12/24 05:16:14;;;;;;;2.93;2.70;;;9.90;99.90;;;;;;4971445;28;20481;-26
2020/12/24 05:18:41;;;;;;;1.50;1.40;;;9.90;99.90;;;;;;4971372;28;20513;-26
2020/12/24 05:21:08;;;;;;;4.93;1.47;;;9.80;99.90;;;;;;4971009;28;20437;-25
2020/12/24 05:23:35;;;;;;;1.10;1.10;;;9.80;99.90;;;;;;4971432;28;20473;-26
2020/12/24 05:26:18;;;;;;;1.40;1.30;;;9.80;99.90;;;;;;4970907;28;21052;-26
2020/12/24 05:28:46;;;;;;;1.40;1.30;;;9.80;99.90;;;;;;4970334;28;20461;-26
2020/12/24 05:31:30;;;;;;;1.43;1.33;;;9.80;99.90;;;;;;4970414;28;20452;-26
2020/12/24 05:33:56;;;;;;;3.70;1.50;;;9.80;99.90;;;;;;4969989;28;20452;-26
2020/12/24 05:36:23;;;;;;;1.53;1.43;;;9.70;99.90;;;;;;4968585;28;20466;-26
2020/12/24 05:38:52;;;;;;;1.87;1.30;;;9.60;99.90;;;;;;4970311;28;20441;-26
2020/12/24 05:41:32;;;;;;;1.40;1.40;;;9.60;99.90;;;;;;4970584;28;20438;-26
2020/12/24 05:44:01;;;;;;;1.27;1.27;;;9.60;99.90;;;;;;4971554;28;20457;-26
2020/12/24 05:46:29;;;;;;;1.80;1.50;;;9.50;99.90;;;;;;4971451;28;20867;-26
2020/12/24 05:48:56;;;;;;;1.17;1.17;;;9.50;99.90;;;;;;4969592;28;20444;-26
2020/12/24 05:51:22;;;;;;;3.80;1.50;;;9.50;99.90;;;;;;4968868;28;20718;-26
2020/12/24 05:53:49;;;;;;;1.90;1.80;;;9.50;99.90;;;;;;4969201;28;20437;-26
2020/12/24 05:56:20;;;;;;;1.43;1.43;;;9.50;99.90;;;;;;4970760;28;20501;-26
2020/12/24 05:58:48;;;;;;;2.73;1.60;;;9.40;99.90;;;;;;4969414;28;20508;-26
2020/12/24 06:01:16;;;;;;;1.80;1.70;;;9.20;99.90;;;;;;4969659;28;20484;-26
2020/12/24 06:04:01;;;;;;;2.50;1.60;;;9.10;99.90;;;;;;4969900;28;20437;-26
2020/12/24 06:06:45;;;;;;;1.53;1.43;;;9.00;99.90;;;;;;4969515;28;20797;-26
2020/12/24 06:09:15;;;;;;;1.83;1.73;;;9.10;99.90;;;;;;4969262;28;20449;-26
2020/12/24 06:11:47;;;;;;;2.70;2.50;;;9.10;99.90;;;;;;4968736;28;20917;-26
2020/12/24 06:14:31;;;;;;;3.80;2.97;;;9.10;99.90;;;;;;4967760;28;20874;-26
2020/12/24 06:17:06;;;;;;;2.90;2.80;;;9.00;99.90;;;;;;4969120;28;20481;-26
2020/12/24 06:19:38;;;;;;;3.03;2.83;;;8.90;99.90;;;;;;4969087;28;20445;-26
2020/12/24 06:22:05;;;;;;;2.53;2.33;;;8.90;99.90;;;;;;4968193;28;20441;-26
2020/12/24 06:24:33;;;;;;;3.60;1.70;;;8.90;99.90;;;;;;4969464;28;20524;-26
2020/12/24 06:27:06;;;;;;;2.40;2.30;;;9.00;99.90;;;;;;4968209;28;20453;-26
2020/12/24 06:29:37;;;;;;;2.00;1.90;;;9.00;99.90;;;;;;4968610;28;20445;-26
2020/12/24 06:32:07;;;;;;;2.73;2.53;;;8.90;99.90;;;;;;4965755;28;20456;-26
2020/12/24 06:34:40;;;;;;;4.60;2.40;;;8.90;99.90;;;;;;4967491;28;20743;-26
2020/12/24 06:37:16;;;;;;;4.07;2.00;;;8.80;99.90;;;;;;4967695;28;20564;-26
2020/12/24 06:39:48;;;;;;;2.40;2.10;;;8.70;99.90;;;;;;4966520;28;20843;-26
2020/12/24 06:42:43;;;;;;;3.40;2.77;;;8.70;99.90;;;;;;4967656;28;20743;-26
2020/12/24 06:45:12;;;;;;;3.30;3.10;;;8.80;99.90;;;;;;4968484;28;20684;-26
2020/12/24 06:47:41;;;;;;;5.00;4.17;;;8.90;99.90;;;;;;4967168;28;20507;-26
2020/12/24 06:50:36;;;;;;;5.33;5.00;;;8.90;99.90;;;;;;4968918;28;20757;-26
2020/12/24 06:53:23;;;;;;;4.83;4.30;;;9.10;99.90;;;;;;4966409;28;20540;-26
2020/12/24 06:56:22;;;;;;;6.70;6.10;;;9.20;99.90;;;;;;4967730;28;20484;-26
2020/12/24 06:58:58;;;;;;;7.23;3.80;;;9.20;99.90;;;;;;4968917;28;20943;-26
2020/12/24 07:01:27;;;;;;;6.00;2.70;;;9.30;99.90;;;;;;4965697;28;20484;-26
2020/12/24 07:03:56;;;;;;;2.50;2.30;;;9.30;99.90;;;;;;4965232;28;20444;-26
2020/12/24 07:06:54;;;;;;;2.80;2.37;;;9.30;99.90;;;;;;4964874;28;20783;-26
2020/12/24 07:09:40;;;;;;;2.40;1.80;;;9.30;99.90;;;;;;4966895;28;20695;-26
2020/12/24 07:12:07;;;;;;;2.47;2.10;;;9.30;99.90;;;;;;4965889;28;20860;-26
2020/12/24 07:14:34;;;;;;;3.10;2.43;;;9.30;99.90;;;;;;4966845;28;20671;-26
2020/12/24 07:17:08;;;;;;;3.43;2.00;;;9.30;99.90;;;;;;4967611;28;20885;-26
2020/12/24 07:19:36;;;;;;;1.90;1.80;;;9.30;99.90;;;;;;4967036;28;20523;-26
2020/12/24 07:22:06;;;;;;;1.87;1.77;;;9.40;99.90;;;;;;4967127;28;20552;-26
2020/12/24 07:24:33;;;;;;;4.60;1.73;;;9.40;99.90;;;;;;4967793;28;20836;-26
2020/12/24 07:27:01;;;;;;;1.87;1.70;;;9.40;99.90;;;;;;4966962;28;20881;-26
2020/12/24 07:29:30;;;;;;;2.07;1.87;;;9.50;99.90;;;;;;4966642;28;20747;-26
2020/12/24 07:32:00;;;;;;;2.20;2.10;;;9.50;99.90;;;;;;4965778;28;20721;-26
2020/12/24 07:34:28;;;;;;;2.70;2.50;;;9.50;99.90;;;;;;4964967;28;20442;-26
2020/12/24 07:36:56;;;;;;;7.77;2.67;;;9.60;99.90;;;;;;4967689;28;20477;-27
2020/12/24 07:39:22;;;;;;;8.63;2.80;;;9.60;99.90;;;;;;4965848;28;20721;-26
2020/12/24 07:41:49;;;;;;;2.57;2.37;;;9.60;99.90;;;;;;4965683;28;20548;-26
2020/12/24 07:44:17;;;;;;;2.53;2.43;;;9.70;99.90;;;;;;4966444;28;20559;-27
2020/12/24 07:46:44;;;;;;;3.13;2.67;;;9.70;99.90;;;;;;4963628;28;20978;-26
2020/12/24 07:49:11;;;;;;;6.70;3.20;;;9.70;99.90;;;;;;4964409;28;20718;-26
2020/12/24 07:51:38;;;;;;;3.03;2.83;;;9.70;99.90;;;;;;4964582;28;20437;-27
2020/12/24 07:54:06;;;;;;;3.50;3.20;;;9.70;99.90;;;;;;4963740;28;20903;-26
2020/12/24 07:56:34;;;;;;;5.30;4.57;;;9.70;99.90;;;;;;4964151;28;20654;-26
2020/12/24 07:59:02;;;;;;;4.23;3.83;;;9.70;99.90;;;;;;4967676;28;20468;-26
2020/12/24 08:01:28;;;;;;;3.60;2.80;;;9.80;99.90;;;;;;4967613;28;20804;-26
2020/12/24 08:03:59;;;;;;;11.50;10.37;;;9.80;99.90;;;;;;4968855;28;20740;-26
2020/12/24 08:06:26;;;;;;;5.17;4.70;;;9.80;99.90;;;;;;4970875;28;20487;-26
2020/12/24 08:08:53;;;;;;;4.97;3.60;;;9.90;99.90;;;;;;4970513;28;20429;-26
2020/12/24 08:11:21;;;;;;;3.63;3.33;;;9.80;99.90;;;;;;4970390;28;20457;-26
2020/12/24 08:13:54;;;;;;;5.03;2.90;;;9.90;99.90;;;;;;4967911;28;20950;-26
2020/12/24 08:16:21;;;;;;;2.03;1.93;;;9.90;99.90;;;;;;4966304;28;20887;-26
2020/12/24 08:18:50;;;;;;;2.63;1.80;;;9.90;99.90;;;;;;4966677;28;20847;-26
2020/12/24 08:21:22;;;;;;;1.97;1.87;;;10.00;99.90;;;;;;4968966;28;20816;-26
2020/12/24 08:23:52;;;;;;;3.30;2.03;;;10.00;99.90;;;;;;4968857;28;20500;-27
2020/12/24 08:26:20;;;;;;;3.07;2.57;;;10.10;99.90;;;;;;4967571;28;20836;-27
2020/12/24 08:28:54;;;;;;;3.27;2.80;;;10.20;99.90;;;;;;4965976;28;20464;-26
2020/12/24 08:31:22;;;;;;;7.40;2.47;;;10.10;99.90;;;;;;4967792;28;20783;-26
2020/12/24 08:33:50;;;;;;;2.63;2.13;;;10.10;99.90;;;;;;4967490;28;20440;-26
2020/12/24 08:36:18;;;;;;;2.00;1.80;;;10.00;99.90;;;;;;4963746;28;20453;-26
2020/12/24 08:38:46;;;;;;;2.40;1.90;;;10.00;99.90;;;;;;4967214;28;20880;-26
2020/12/24 08:41:20;;;;;;;2.63;2.30;;;10.00;99.90;;;;;;4969120;28;20762;-26
2020/12/24 08:43:53;;;;;;;2.30;2.10;;;9.90;99.90;;;;;;4968106;28;21000;-26
2020/12/24 08:46:19;;;;;;;5.83;2.50;;;9.90;99.90;;;;;;4968143;28;20752;-26
2020/12/24 08:48:46;;;;;;;5.93;2.37;;;10.00;99.90;;;;;;4970027;28;20472;-26
2020/12/24 08:51:13;;;;;;;2.43;2.00;;;10.00;99.90;;;;;;4970833;28;21012;-26
2020/12/24 08:53:40;;;;;;;2.80;1.73;;;9.90;99.90;;;;;;4966690;28;20875;-26
2020/12/24 08:56:14;;;;;;;5.07;2.80;;;9.90;99.90;;;;;;4967209;28;20464;-26
2020/12/24 08:58:48;;;;;;;2.37;2.20;;;9.80;99.90;;;;;;4966727;28;20952;-26
2020/12/24 09:01:16;;;;;;;3.97;2.83;;;9.90;99.90;;;;;;4967706;28;20586;-26
2020/12/24 09:03:43;;;;;;;2.50;2.03;;;9.80;99.90;;;;;;4967343;28;20725;-26
2020/12/24 09:06:12;;;;;;;4.90;2.20;;;9.80;99.90;;;;;;4968336;28;20544;-26
2020/12/24 09:08:39;;;;;;;4.07;2.77;;;9.80;99.90;;;;;;4965660;28;20507;-27
2020/12/24 09:11:07;;;;;;;10.47;2.57;;;9.60;99.90;;;;;;4966347;28;20449;-26
2020/12/24 09:13:33;;;;;;;3.17;2.00;;;9.50;99.90;;;;;;4966170;28;20461;-27
2020/12/24 09:16:10;;;;;;;3.97;2.57;;;9.40;99.90;;;;;;4965458;28;20445;-26
2020/12/24 09:18:37;;;;;;;7.57;2.30;;;9.30;99.90;;;;;;4965195;28;20507;-26
2020/12/24 09:21:11;;;;;;;13.47;8.87;;;9.30;99.90;;;;;;4965857;28;20594;-26
2020/12/24 09:23:37;;;;;;;3.60;2.50;;;9.20;99.90;;;;;;4964843;28;20449;-26
2020/12/24 09:26:04;;;;;;;2.50;2.30;;;9.20;99.90;;;;;;4967887;28;20793;-26
2020/12/24 09:28:31;;;;;;;2.10;2.00;;;9.20;99.90;;;;;;4964286;28;20871;-26
2020/12/24 09:30:59;;;;;;;8.90;3.03;;;9.20;99.90;;;;;;4964570;28;20445;-26
2020/12/24 09:33:26;;;;;;;2.87;2.07;;;9.20;99.90;;;;;;4964166;28;20513;-26
2020/12/24 09:35:53;;;;;;;2.13;2.00;;;9.30;99.90;;;;;;4965019;28;20687;-27
2020/12/24 09:38:20;;;;;;;2.00;1.90;;;9.30;99.90;;;;;;4965550;28;20999;-27
2020/12/24 09:40:46;;;;;;;4.13;2.07;;;9.30;99.90;;;;;;4965372;28;20726;-26
2020/12/24 09:43:13;;;;;;;4.17;2.03;;;9.40;99.90;;;;;;4965850;28;20871;-26
2020/12/24 09:45:40;;;;;;;2.30;2.10;;;9.40;99.90;;;;;;4967030;28;20651;-26
2020/12/24 09:48:07;;;;;;;2.17;1.87;;;9.30;99.90;;;;;;4949228;28;20449;-26
2020/12/24 09:50:35;;;;;;;1.90;1.80;;;9.30;99.90;;;;;;4964894;28;20442;-27
2020/12/24 09:53:03;;;;;;;2.10;2.00;;;9.30;99.90;;;;;;4964388;28;20544;-26
2020/12/24 09:55:30;;;;;;;1.97;1.87;;;9.40;99.90;;;;;;4965110;28;20565;-27
2020/12/24 09:57:56;;;;;;;1.70;1.63;;;9.50;99.90;;;;;;4964528;28;20930;-26
2020/12/24 10:00:24;;;;;;;1.67;1.60;;;9.50;99.90;;;;;;4964131;28;21069;-26
2020/12/24 10:02:50;;;;;;;2.63;2.50;;;9.50;99.90;;;;;;4965151;28;20857;-26
2020/12/24 10:05:17;;;;;;;1.80;1.70;;;9.60;99.90;;;;;;4965502;28;20729;-27
2020/12/24 10:07:44;;;;;;;2.87;2.77;;;9.70;99.90;;;;;;4966527;28;20442;-26
2020/12/24 10:10:11;;;;;;;1.93;1.83;;;9.70;99.90;;;;;;4963541;28;20816;-26
2020/12/24 10:12:38;;;;;;;1.93;1.80;;;9.70;99.90;;;;;;4963568;28;20453;-26
2020/12/24 10:15:08;;;;;;;1.80;1.70;;;9.70;99.90;;;;;;4965448;28;20453;-25
2020/12/24 10:17:40;;;;;;;2.03;1.93;;;9.50;99.90;;;;;;4969336;28;20461;-25
2020/12/24 10:20:09;;;;;;;2.37;2.27;;;9.40;99.90;;;;;;4966102;28;20445;-25
2020/12/24 10:22:35;;;;;;;3.70;2.10;;;9.40;99.90;;;;;;4964510;28;20523;-25
2020/12/24 10:25:02;;;;;;;1.60;1.60;;;9.30;99.90;;;;;;4963592;28;20716;-25
2020/12/24 10:27:29;;;;;;;2.30;1.90;;;9.30;99.90;;;;;;4965591;28;20479;-25
2020/12/24 10:29:56;;;;;;;2.10;1.87;;;9.30;99.90;;;;;;4962292;28;20836;-26
2020/12/24 10:32:23;;;;;;;1.73;1.63;;;9.40;99.90;;;;;;4962713;28;20503;-26
2020/12/24 10:34:50;;;;;;;2.63;1.87;;;9.40;99.90;;;;;;4960550;28;20452;-25
2020/12/24 10:37:17;;;;;;;1.70;1.60;;;9.40;99.90;;;;;;4964556;28;20851;-26
2020/12/24 10:39:43;;;;;;;2.73;2.50;;;9.40;99.90;;;;;;4963915;28;20766;-25
2020/12/24 10:42:11;;;;;;;2.70;1.90;;;9.50;99.90;;;;;;4962904;28;20453;-26
2020/12/24 10:44:38;;;;;;;3.23;1.70;;;9.50;99.90;;;;;;4946153;28;20481;-26
2020/12/24 10:47:05;;;;;;;1.37;1.37;;;9.50;99.90;;;;;;4962485;28;20731;-25
2020/12/24 10:49:32;;;;;;;1.90;1.90;;;9.30;99.90;;;;;;4963243;28;20449;-25
2020/12/24 10:51:58;;;;;;;2.13;1.40;;;9.30;99.90;;;;;;4963029;28;20465;-25
2020/12/24 10:54:25;;;;;;;1.80;1.70;;;9.30;99.90;;;;;;4960926;28;20445;-25
2020/12/24 10:56:52;;;;;;;1.77;1.53;;;9.30;99.90;;;;;;4964729;28;20742;-25
2020/12/24 10:59:19;;;;;;;1.63;1.53;;;9.30;99.90;;;;;;4965012;28;20464;-26
2020/12/24 11:01:47;;;;;;;1.97;1.80;;;9.30;99.90;;;;;;4962468;28;20521;-25
2020/12/24 11:04:14;;;;;;;5.00;1.73;;;9.20;99.90;;;;;;4963055;28;20441;-25
2020/12/24 11:06:43;;;;;;;1.83;1.73;;;9.20;99.90;;;;;;4963865;28;20449;-25
2020/12/24 11:09:10;;;;;;;1.70;1.60;;;9.30;99.90;;;;;;4962988;28;20507;-25
2020/12/24 11:11:37;;;;;;;2.03;1.93;;;9.40;99.90;;;;;;4959422;28;20515;-25
2020/12/24 11:14:04;;;;;;;2.70;2.00;;;9.50;99.90;;;;;;4963022;28;20472;-25
2020/12/24 11:16:33;;;;;;;1.60;1.50;;;9.40;99.90;;;;;;4963300;28;20713;-25
2020/12/24 11:19:01;;;;;;;2.13;1.97;;;9.40;99.90;;;;;;4964351;28;20436;-26
2020/12/24 11:21:31;;;;;;;2.87;2.00;;;9.30;99.90;;;;;;4964783;28;20671;-25
2020/12/24 11:24:04;;;;;;;3.07;1.80;;;9.40;99.90;;;;;;4962059;28;20840;-25
2020/12/24 11:26:31;;;;;;;2.43;1.77;;;9.40;99.90;;;;;;4966709;28;20437;-25
2020/12/24 11:28:57;;;;;;;2.17;2.07;;;9.40;99.90;;;;;;4963553;28;20496;-25
2020/12/24 11:31:26;;;;;;;2.57;1.70;;;9.50;99.90;;;;;;4964134;28;20496;-25
2020/12/24 11:33:53;;;;;;;2.20;2.10;;;9.50;99.90;;;;;;4964307;28;21014;-25
2020/12/24 11:36:21;;;;;;;2.20;2.00;;;9.40;99.90;;;;;;4966495;28;20703;-25
2020/12/24 11:38:48;;;;;;;2.20;1.73;;;9.40;99.90;;;;;;4964938;28;20591;-25
2020/12/24 11:41:16;;;;;;;2.17;1.90;;;9.30;99.90;;;;;;4967913;28;20727;-25
2020/12/24 11:43:43;;;;;;;1.90;1.80;;;9.30;99.90;;;;;;4967706;28;20464;-25
2020/12/24 11:46:10;;;;;;;1.87;1.77;;;9.30;99.90;;;;;;4964969;28;20445;-25
2020/12/24 11:48:38;;;;;;;3.90;1.60;;;9.30;99.90;;;;;;4968681;28;20442;-25
2020/12/24 11:51:06;;;;;;;2.03;2.03;;;9.40;99.90;;;;;;4967986;28;20448;-25
2020/12/24 11:53:34;;;;;;;2.80;2.17;;;9.50;99.90;;;;;;4969318;28;20460;-25
2020/12/24 11:56:00;;;;;;;1.70;1.60;;;9.50;99.90;;;;;;4968407;28;20475;-25
2020/12/24 11:58:27;;;;;;;1.70;1.70;;;9.50;99.90;;;;;;4969160;28;20847;-25
2020/12/24 12:00:53;;;;;;;1.60;1.60;;;9.60;99.90;;;;;;4968883;28;20543;-25
2020/12/24 12:03:20;;;;;;;2.93;2.00;;;9.60;99.90;;;;;;4967854;28;20456;-25
2020/12/24 12:05:47;;;;;;;2.20;2.00;;;9.50;99.90;;;;;;4969615;28;20433;-25
2020/12/24 12:08:13;;;;;;;1.90;1.80;;;9.50;99.90;;;;;;4968437;28;20686;-26
2020/12/24 12:10:41;;;;;;;2.00;1.90;;;9.50;99.90;;;;;;4967204;28;20456;-25
2020/12/24 12:13:07;;;;;;;1.87;1.70;;;9.60;99.90;;;;;;4968548;28;20440;-26
2020/12/24 12:15:34;;;;;;;2.57;2.47;;;9.70;99.90;;;;;;4969007;28;20444;-25
2020/12/24 12:18:00;;;;;;;1.90;1.80;;;9.80;99.90;;;;;;4967960;28;20473;-25
2020/12/24 12:20:27;;;;;;;1.50;1.40;;;9.80;99.90;;;;;;4968777;28;20449;-25
2020/12/24 12:22:54;;;;;;;1.60;1.60;;;9.80;99.90;;;;;;4977503;28;21101;-25
2020/12/24 12:25:21;;;;;;;6.27;2.20;;;9.90;99.90;;;;;;4979259;28;20455;-25
2020/12/24 12:27:49;;;;;;;1.80;1.70;;;10.00;99.90;;;;;;4980072;28;20457;-25
2020/12/24 12:30:16;;;;;;;1.63;1.63;;;9.80;99.90;;;;;;4978146;28;21208;-25
2020/12/24 12:32:46;;;;;;;1.73;1.50;;;9.70;99.90;;;;;;4975244;28;20560;-25
2020/12/24 12:35:13;;;;;;;1.70;1.60;;;9.60;99.90;;;;;;4977269;28;20452;-25
2020/12/24 12:37:40;;;;;;;1.47;1.47;;;9.60;99.90;;;;;;4980690;28;20884;-25
2020/12/24 12:40:08;;;;;;;1.50;1.40;;;9.70;99.90;;;;;;4987281;28;20451;-25
2020/12/24 12:42:34;;;;;;;1.50;1.50;;;9.70;99.90;;;;;;4989398;28;20460;-26
2020/12/24 12:45:03;;;;;;;1.67;1.50;;;9.70;99.90;;;;;;4982465;28;20535;-26
2020/12/24 12:47:34;;;;;;;1.60;1.50;;;9.70;99.90;;;;;;4987443;28;20840;-26
2020/12/24 12:50:01;;;;;;;1.73;1.73;;;9.60;99.90;;;;;;4985005;28;20846;-26
2020/12/24 12:52:29;;;;;;;1.80;1.70;;;9.60;99.90;;;;;;4987223;28;20506;-26
2020/12/24 12:54:56;;;;;;;2.50;2.33;;;9.70;99.90;;;;;;4985971;28;20459;-25
2020/12/24 12:57:23;;;;;;;2.30;1.90;;;9.70;99.90;;;;;;4986478;28;20494;-25
2020/12/24 12:59:49;;;;;;;2.20;2.10;;;9.70;99.90;;;;;;4984012;28;20491;-25